M I D A S
Marine Information and Data Acquisition System
Tripno 780 of the Zeeleeuw from 2004-08-18 07:47:36 to 2004-08-18 11:48:37
Back to CruiseResearch ActivitiesStationsMapUnderway DataData graphs

EquipmentUnitsComment
TimeDGPSUTC
LatitudeDGPSDM.mWGS84
LongitudeDGPSDM.mWGS84
HeadingGyrodeg 
SOGDGPSknotsSpeed over ground
COGDGPSdegCourse over ground
DepthEcho soundermeters200 kHz
Missing or incorrect values are displayed as -999
Navigation data collected by the RV Zeeleeuw from 2004-08-18 07:47:36 to 2004-08-18 11:48:37
Time Latitude Longitude Heading SOG COG Depth
2004-08-18 07:48:39 51°13.595 2°56.114 118.9 0.1 192 7.1
2004-08-18 07:49:40 51°13.603 2°56.092 114.6 2.4 299 -999
2004-08-18 07:50:39 51°13.622 2°56.027 104.2 0.7 304 9.2
2004-08-18 07:51:40 51°13.634 2°56.003 122 3.1 301 -999
2004-08-18 07:52:40 51°13.668 2°55.911 120.6 4.5 301 -999
2004-08-18 07:53:40 51°13.694 2°55.813 95.8 3.6 283 9.7
2004-08-18 07:54:39 51°13.693 2°55.739 63.4 1.3 262 12.3
2004-08-18 07:55:39 51°13.728 2°55.725 336 4 331 9
2004-08-18 07:56:39 51°13.816 2°55.641 337.2 7.8 334 9.8
2004-08-18 07:57:39 51°13.946 2°55.547 340.5 9 337 9.3
2004-08-18 07:58:39 51°14.084 2°55.449 340.1 9.2 335 9.8
2004-08-18 07:59:39 51°14.231 2°55.318 327.2 10.5 320 10.6
2004-08-18 08:00:39 51°14.352 2°55.106 313.5 11.2 308 9.4
2004-08-18 08:01:39 51°14.455 2°54.812 296.5 13.5 289 9.7
2004-08-18 08:02:39 51°14.498 2°54.454 278.2 13.9 273 9.7
2004-08-18 08:03:39 51°14.437 2°54.108 243 13.6 238 8.6
2004-08-18 08:04:39 51°14.317 2°53.794 244.5 14 241 8.4
2004-08-18 08:05:39 51°14.194 2°53.476 241.3 14.2 238 8.6
2004-08-18 08:06:39 51°14.07 2°53.154 240.4 14.3 236 8.8
2004-08-18 08:07:39 51°13.945 2°52.83 243.2 14.4 239 9.2
2004-08-18 08:08:39 51°13.818 2°52.508 241.1 14.4 238 9.3
2004-08-18 08:09:39 51°13.695 2°52.182 242 14.4 238 9.5
2004-08-18 08:10:39 51°13.567 2°51.86 243.6 14.4 239 9.4
2004-08-18 08:11:39 51°13.44 2°51.535 243.6 14.4 240 9.7
2004-08-18 08:12:37 51°13.32 2°51.221 242.4 14.4 239 9.6
2004-08-18 08:13:39 51°13.193 2°50.883 242.2 14.3 238 9.8
2004-08-18 08:14:39 51°13.078 2°50.55 245.4 14.4 240 10.1
2004-08-18 08:15:39 51°12.96 2°50.219 246 14.4 242 10.1
2004-08-18 08:16:39 51°12.843 2°49.887 244.9 14.4 241 10.2
2004-08-18 08:17:39 51°12.725 2°49.553 244.4 14.4 240 10.3
2004-08-18 08:18:39 51°12.609 2°49.22 245.8 14.4 242 10.6
2004-08-18 08:19:39 51°12.495 2°48.885 246.2 14.4 242 10.4
2004-08-18 08:20:39 51°12.378 2°48.553 245.5 14.4 241 10.6
2004-08-18 08:21:39 51°12.262 2°48.222 245.1 14.3 241 10.6
2004-08-18 08:22:39 51°12.145 2°47.89 246 14.4 242 10.7
2004-08-18 08:23:37 51°12.033 2°47.566 244.8 14.4 241 10.6
2004-08-18 08:24:39 51°11.916 2°47.217 245.6 14.4 242 10.6
2004-08-18 08:25:39 51°11.802 2°46.883 244.3 14.3 241 10.5
2004-08-18 08:26:39 51°11.679 2°46.558 238.5 14.2 235 10.3
2004-08-18 08:27:39 51°11.556 2°46.237 247.5 14.3 244 10.1
2004-08-18 08:28:39 51°11.46 2°45.89 249 14.3 246 10
2004-08-18 08:29:39 51°11.361 2°45.545 248.4 14.3 245 9.9
2004-08-18 08:30:39 51°11.264 2°45.2 248.6 14.3 246 9.8
2004-08-18 08:31:39 51°11.168 2°44.853 249.1 14.3 245 9.7
2004-08-18 08:32:39 51°11.072 2°44.507 250.6 14.3 246 9.6
2004-08-18 08:33:39 51°10.974 2°44.16 250.8 14.3 247 9.3
2004-08-18 08:34:39 51°10.878 2°43.813 248.4 14.4 246 9.2
2004-08-18 08:35:39 51°10.785 2°43.464 249.2 14.4 246 9.1
2004-08-18 08:36:39 51°10.689 2°43.116 250.4 14.4 247 8.9
2004-08-18 08:37:39 51°10.59 2°42.771 251 14.3 249 8.7
2004-08-18 08:38:39 51°10.501 2°42.421 248 14.3 244 8.6
2004-08-18 08:39:39 51°10.408 2°42.075 252.7 14.3 249 8.7
2004-08-18 08:40:39 51°10.309 2°41.731 246.5 14.3 246 8.6
2004-08-18 08:41:39 51°10.221 2°41.379 248.3 14.3 245 8.7
2004-08-18 08:42:37 51°10.127 2°41.044 252.2 14.3 250 8.8
2004-08-18 08:43:39 51°10.051 2°40.674 263.2 14.2 264 9
2004-08-18 08:44:39 51°10.027 2°40.299 262.4 14.3 259 9.5
2004-08-18 08:45:39 51°9.945 2°39.943 247 14.3 245 9.6
2004-08-18 08:46:39 51°9.848 2°39.597 248 14.4 246 9.5
2004-08-18 08:47:39 51°9.751 2°39.249 248.5 14.3 247 9.7
2004-08-18 08:48:39 51°9.657 2°38.902 249.5 14.3 248 9.9
2004-08-18 08:49:37 51°9.564 2°38.565 248.2 14.4 247 9.9
2004-08-18 08:50:39 51°9.469 2°38.202 247.5 14.3 246 9.9
2004-08-18 08:51:39 51°9.373 2°37.854 247.4 14.3 246 10
2004-08-18 08:52:39 51°9.293 2°37.5 257.6 13.5 257 10
2004-08-18 08:53:39 51°9.232 2°37.248 221.9 8 216 10.3
2004-08-18 08:54:39 51°9.149 2°37.237 144.8 4.3 145 9.7
2004-08-18 08:55:39 51°9.135 2°37.303 76.2 0.2 124 9.5
2004-08-18 08:56:39 51°9.135 2°37.3 67.1 0.1 341 9.5
2004-08-18 08:57:39 51°9.136 2°37.299 86.3 0.2 281 9.5
2004-08-18 08:58:39 51°9.136 2°37.289 96.2 0.5 270 9.5
2004-08-18 08:59:39 51°9.137 2°37.272 103.2 0.6 279 9.6
2004-08-18 09:00:39 51°9.136 2°37.262 103.7 0.2 246 9.6
2004-08-18 09:01:39 51°9.133 2°37.26 101.2 0.1 171 9.6
2004-08-18 09:02:39 51°9.132 2°37.264 100.3 0.3 124 9.5
2004-08-18 09:03:39 51°9.129 2°37.268 105.2 0.2 155 9.5
2004-08-18 09:04:41 51°9.124 2°37.269 109.3 0.2 187 9.5
2004-08-18 09:05:41 51°9.12 2°37.268 112.5 0.3 195 11.3
2004-08-18 09:07:11 51°9.112 2°37.263 116.1 0.3 208 9.5
2004-08-18 09:08:11 51°9.107 2°37.259 119.5 0.3 209 9.4
2004-08-18 09:09:10 51°9.101 2°37.253 120.2 0.4 203 9.4
2004-08-18 09:10:12 51°9.095 2°37.25 114.4 0.3 192 9.4
2004-08-18 09:11:12 51°9.09 2°37.249 108.8 0.3 179 9.4
2004-08-18 09:12:25 51°9.084 2°37.25 105.2 0.3 172 11.1
2004-08-18 09:13:25 51°9.081 2°37.251 101.5 0.3 172 9.3
2004-08-18 09:14:26 51°9.078 2°37.253 98.3 0.2 143 9.3
2004-08-18 09:15:24 51°9.075 2°37.256 97 0.2 150 9.3
2004-08-18 09:16:24 51°9.072 2°37.259 94.7 0.2 143 9.3
2004-08-18 09:17:27 51°9.069 2°37.263 90.8 0.2 127 9.3
2004-08-18 09:18:25 51°9.068 2°37.268 88.4 0.2 115 9.3
2004-08-18 09:19:25 51°9.068 2°37.273 88.5 0.2 103 9.2
2004-08-18 09:20:27 51°9.066 2°37.279 93.4 0.3 124 9.3
2004-08-18 09:21:25 51°9.063 2°37.286 102.4 0.6 123 9.2
2004-08-18 09:22:25 51°9.045 2°37.308 135.9 1.9 153 9.1
2004-08-18 09:23:27 51°8.997 2°37.309 185.3 3.6 196 8.9
2004-08-18 09:24:27 51°8.958 2°37.218 263.8 4.7 261 8.7
2004-08-18 09:25:27 51°8.993 2°37.12 344.9 4.3 329 8.9
2004-08-18 09:26:27 51°9.062 2°37.129 31.9 4.4 21 9.4
2004-08-18 09:27:27 51°9.116 2°37.172 42.9 3.3 32 9.8
2004-08-18 09:28:26 51°9.153 2°37.22 55.2 2.7 46 10
2004-08-18 09:29:33 51°9.178 2°37.283 69.2 2.5 61 10.2
2004-08-18 09:30:33 51°9.197 2°37.343 70.4 2.6 62 10.2
2004-08-18 09:31:33 51°9.215 2°37.402 69.9 2.5 63 10.3
2004-08-18 09:32:33 51°9.233 2°37.461 68.6 2.5 61 10.4
2004-08-18 09:33:32 51°9.254 2°37.52 68.7 2.5 63 10.4
2004-08-18 09:34:34 51°9.267 2°37.582 78.1 2.4 76 10.4
2004-08-18 09:35:33 51°9.277 2°37.642 76.1 2.4 72 10.4
2004-08-18 09:36:33 51°9.289 2°37.702 76.2 2.5 71 10.4
2004-08-18 09:37:33 51°9.3 2°37.764 77.4 2.4 74 10.4
2004-08-18 09:38:32 51°9.31 2°37.826 79.8 2.4 78 10.4
2004-08-18 09:39:33 51°9.318 2°37.889 78.1 2.4 75 10.4
2004-08-18 09:40:34 51°9.331 2°37.95 72.6 2.4 65 10.4
2004-08-18 09:41:32 51°9.348 2°38.006 67.1 2.4 60 10.4
2004-08-18 09:42:33 51°9.372 2°38.06 60.1 2.5 52 10.5
2004-08-18 09:43:33 51°9.393 2°38.115 69.6 2.4 66 10.6
2004-08-18 09:44:33 51°9.404 2°38.176 80.8 2.4 78 10.6
2004-08-18 09:45:33 51°9.412 2°38.239 79.5 2.5 80 10.5
2004-08-18 09:46:33 51°9.423 2°38.303 75.1 2.5 73 10.5
2004-08-18 09:47:33 51°9.439 2°38.363 71.8 2.5 66 10.5
2004-08-18 09:48:33 51°9.457 2°38.422 70.7 2.5 63 10.6
2004-08-18 09:49:33 51°9.474 2°38.481 68.9 2.5 62 10.5
2004-08-18 09:50:33 51°9.495 2°38.54 66.6 2.6 60 10.6
2004-08-18 09:51:32 51°9.517 2°38.598 67 2.6 61 10.6
2004-08-18 09:52:33 51°9.535 2°38.662 72.5 2.6 70 10.7
2004-08-18 09:53:34 51°9.549 2°38.728 76.8 2.6 75 10.6
2004-08-18 09:54:33 51°9.559 2°38.792 78.9 2.6 78 10.5
2004-08-18 09:55:33 51°9.568 2°38.858 80.6 2.6 77 10.5
2004-08-18 09:56:34 51°9.574 2°38.927 82 2.6 79 10.4
2004-08-18 09:57:33 51°9.585 2°38.992 77.5 2.6 73 10.4
2004-08-18 09:58:33 51°9.6 2°39.057 73.1 2.6 67 10.4
2004-08-18 09:59:35 51°9.618 2°39.122 71.5 2.6 65 10.3
2004-08-18 10:00:36 51°9.638 2°39.185 69.1 2.6 62 10.3
2004-08-18 10:01:33 51°9.655 2°39.244 75.6 2.5 72 10.3
2004-08-18 10:02:34 51°9.664 2°39.309 83.2 2.5 81 10.3
2004-08-18 10:03:35 51°9.666 2°39.374 89.2 2.3 92 10.2
2004-08-18 10:04:35 51°9.661 2°39.42 97.3 1.5 106 10.1
2004-08-18 10:05:36 51°9.654 2°39.45 101.6 1 114 10
2004-08-18 10:06:36 51°9.648 2°39.479 95.8 1.7 99 10
2004-08-18 10:07:35 51°9.658 2°39.532 62.4 2.3 53 9.9
2004-08-18 10:08:36 51°9.696 2°39.578 44.2 3.1 36 10
2004-08-18 10:09:34 51°9.735 2°39.628 50.8 3.1 42 10.2
2004-08-18 10:10:36 51°9.773 2°39.683 52.5 2.8 42 10.2
2004-08-18 10:11:36 51°9.805 2°39.73 52.9 2.5 43 10.4
2004-08-18 10:12:36 51°9.832 2°39.774 59.9 2.2 48 10.5
2004-08-18 10:13:35 51°9.853 2°39.818 64.4 2.2 57 10.5
2004-08-18 10:14:36 51°9.875 2°39.867 63.7 2.2 56 10.6
2004-08-18 10:15:35 51°9.896 2°39.915 61.3 2.3 53 10.7
2004-08-18 10:16:33 51°9.918 2°39.962 60.7 2.3 51 10.7
2004-08-18 10:17:36 51°9.944 2°40.011 58 2.3 46 10.8
2004-08-18 10:18:36 51°9.97 2°40.056 58 2.3 48 10.9
2004-08-18 10:19:36 51°9.996 2°40.1 57.3 2.3 48 11
2004-08-18 10:20:35 51°10.022 2°40.145 58.4 2.3 46 11.1
2004-08-18 10:21:36 51°10.047 2°40.192 59.4 2.3 52 11.1
2004-08-18 10:22:36 51°10.073 2°40.239 59.9 2.4 50 11.2
2004-08-18 10:23:36 51°10.098 2°40.287 57.8 2.4 49 11.4
2004-08-18 10:24:36 51°10.124 2°40.334 55.6 2.3 50 11.4
2004-08-18 10:25:36 51°10.152 2°40.379 53.9 2.4 45 11.5
2004-08-18 10:26:36 51°10.179 2°40.423 55.7 2.3 46 11.6
2004-08-18 10:27:35 51°10.204 2°40.467 56 2.3 48 11.8
2004-08-18 10:28:36 51°10.23 2°40.512 57.3 2.3 47 11.9
2004-08-18 10:29:36 51°10.253 2°40.559 63 2.2 58 11.9
2004-08-18 10:30:36 51°10.273 2°40.609 66.3 2.3 61 12.1
2004-08-18 10:31:35 51°10.292 2°40.66 63.3 2.3 56 12.1
2004-08-18 10:32:35 51°10.314 2°40.708 60.5 2.3 52 12.1
2004-08-18 10:33:36 51°10.339 2°40.755 59.8 2.3 48 12.2
2004-08-18 10:34:34 51°10.362 2°40.8 61 2.2 52 12.3
2004-08-18 10:35:36 51°10.386 2°40.848 59.7 2.3 52 12.4
2004-08-18 10:36:35 51°10.41 2°40.895 59.5 2.3 49 12.4
2004-08-18 10:37:35 51°10.435 2°40.942 57.8 2.4 49 12.5
2004-08-18 10:38:35 51°10.462 2°40.988 51.7 2.4 43 12.6
2004-08-18 10:39:35 51°10.494 2°41.029 46.7 2.5 37 12.7
2004-08-18 10:40:35 51°10.528 2°41.068 46.4 2.5 38 12.7
2004-08-18 10:41:35 51°10.561 2°41.108 46.4 2.5 37 12.9
2004-08-18 10:42:35 51°10.595 2°41.148 47.3 2.6 38 12.9
2004-08-18 10:43:36 51°10.628 2°41.193 48.4 2.5 40 12.9
2004-08-18 10:44:35 51°10.661 2°41.235 47.5 2.5 39 13
2004-08-18 10:45:36 51°10.695 2°41.279 48.8 2.6 40 13.1
2004-08-18 10:46:36 51°10.727 2°41.323 48.5 2.6 40 13.1
2004-08-18 10:47:35 51°10.759 2°41.367 49.6 2.6 42 13.2
2004-08-18 10:48:35 51°10.789 2°41.417 58.2 2.6 50 13.1
2004-08-18 10:49:36 51°10.811 2°41.474 67.6 2.5 63 13.1
2004-08-18 10:50:36 51°10.829 2°41.534 70.4 2.5 67 13.2
2004-08-18 10:51:35 51°10.843 2°41.594 77.8 2.4 73 13.2
2004-08-18 10:52:35 51°10.849 2°41.645 86.7 1.7 82 13.2
2004-08-18 10:53:36 51°10.85 2°41.683 94 1.2 92 13.3
2004-08-18 10:54:36 51°10.85 2°41.721 93.6 2.7 89 13.2
2004-08-18 10:55:36 51°10.86 2°41.847 83.3 6.6 79 13.3
2004-08-18 10:56:36 51°10.89 2°42.042 75.8 8.1 72 13.2
2004-08-18 10:57:36 51°10.939 2°42.248 72.5 8.4 68 13.3
2004-08-18 10:58:36 51°10.987 2°42.457 73.3 8.4 69 13.3
2004-08-18 10:59:36 51°11.036 2°42.668 73.5 8.5 70 13.3
2004-08-18 11:00:37 51°11.086 2°42.881 73.2 8.4 69 13.4
2004-08-18 11:01:45 51°11.144 2°43.116 72.7 8.5 69 13.4
2004-08-18 11:02:54 51°11.196 2°43.358 75.1 8.4 70 13.4
2004-08-18 11:03:59 51°11.245 2°43.588 75.1 8.5 71 13.4
2004-08-18 11:04:59 51°11.29 2°43.8 75.9 8.5 72 13.4
2004-08-18 11:06:05 51°11.342 2°44.033 74.8 8.5 70 13.5
2004-08-18 11:07:02 51°11.386 2°44.236 75.2 8.6 72 13.6
2004-08-18 11:08:04 51°11.421 2°44.423 85.7 5.2 82 13.6
2004-08-18 11:09:09 51°11.42 2°44.529 100.1 2.9 69 13.6
2004-08-18 11:10:12 51°11.425 2°44.617 75.9 5.5 72 13.6
2004-08-18 11:11:16 51°11.471 2°44.855 78.9 10.7 75 13.6
2004-08-18 11:12:21 51°11.518 2°45.164 80.5 11.2 76 13.6
2004-08-18 11:13:20 51°11.564 2°45.444 79.4 11.1 75 13.5
2004-08-18 11:14:22 51°11.619 2°45.737 74.9 11.2 70 13.5
2004-08-18 11:15:29 51°11.692 2°46.049 76.1 11.1 71 13.5
2004-08-18 11:16:28 51°11.768 2°46.312 67.4 11.2 62 13.6
2004-08-18 11:17:36 51°11.869 2°46.605 63 11.3 58 13.7
2004-08-18 11:18:40 51°11.975 2°46.874 63.6 11.2 59 13.7
2004-08-18 11:19:40 51°12.069 2°47.13 66.9 11.2 60 13.7
2004-08-18 11:20:40 51°12.159 2°47.39 66.3 11.3 60 13.7
2004-08-18 11:21:40 51°12.247 2°47.654 67.3 11.3 61 13.6
2004-08-18 11:22:40 51°12.333 2°47.923 69.1 11.4 63 13.6
2004-08-18 11:23:45 51°12.425 2°48.213 67.9 11.3 63 13.4
2004-08-18 11:24:44 51°12.513 2°48.475 68 11.4 63 13.4
2004-08-18 11:25:46 51°12.603 2°48.75 68.4 11.3 62 13.2
2004-08-18 11:26:45 51°12.688 2°49.013 67.6 11.4 63 13.2
2004-08-18 11:27:46 51°12.775 2°49.287 68.9 11.5 64 13
2004-08-18 11:28:56 51°12.876 2°49.602 68.5 11.5 63 12.9
2004-08-18 11:29:57 51°12.964 2°49.876 66.8 11.5 62 12.8
2004-08-18 11:31:01 51°13.056 2°50.164 68.2 11.5 63 12.7
2004-08-18 11:32:01 51°13.143 2°50.436 68.9 11.5 62 12.5
2004-08-18 11:33:01 51°13.233 2°50.707 68.3 11.6 63 12.5
2004-08-18 11:34:03 51°13.323 2°50.988 67.7 11.7 62 12.5
2004-08-18 11:35:02 51°13.41 2°51.258 68.5 11.6 63 12.4
2004-08-18 11:36:02 51°13.495 2°51.535 68.3 11.6 62 12.3
2004-08-18 11:37:02 51°13.581 2°51.812 69.4 11.7 65 11.9
2004-08-18 11:38:01 51°13.667 2°52.088 68.8 11.7 64 12.1
2004-08-18 11:39:06 51°13.761 2°52.39 67.6 11.8 63 11.8
2004-08-18 11:40:12 51°13.863 2°52.697 67.5 11.9 62 11.7
2004-08-18 11:41:19 51°13.968 2°53.006 65.3 11.9 60 11.5
2004-08-18 11:42:20 51°14.068 2°53.284 64.5 12 60 11.2
2004-08-18 11:43:25 51°14.181 2°53.576 59.9 11.9 54 11
2004-08-18 11:44:28 51°14.306 2°53.84 57.2 11.9 51 11
2004-08-18 11:45:27 51°14.402 2°54.11 74 11.9 71 11
2004-08-18 11:46:27 51°14.446 2°54.418 84.1 12 80 11.9
2004-08-18 11:47:28 51°14.445 2°54.738 100.4 11.8 96 12.1
2004-08-18 11:48:26 51°14.389 2°55.014 121.3 11.1 116 12.5